Time;durP1;ratioP1;P1;durP2;ratioP2;P2;SDS_P1;SDS_P2;PMS_P1;PMS_P2;Temp;Humidity;BMP_temperature;BMP_pressure;BME280_temperature;BME280_humidity;BME280_pressure;Samples;Min_cycle;Max_cycle;Signal;HPM_P1;HPM_P2
2023/03/10 00:01:14;;;;;;;17.48;2.95;;;27.20;23.20;;;;;;5072957;28;20175;-66
2023/03/10 00:03:41;;;;;;;16.02;2.70;;;27.20;23.00;;;;;;5072343;28;20093;-66
2023/03/10 00:06:09;;;;;;;19.13;3.00;;;27.30;23.70;;;;;;5075072;28;20560;-66
2023/03/10 00:08:35;;;;;;;28.52;3.70;;;27.10;23.30;;;;;;5072990;28;20149;-69
2023/03/10 00:11:02;;;;;;;23.52;3.17;;;27.00;23.00;;;;;;5074926;28;20074;-66
2023/03/10 00:13:28;;;;;;;22.88;3.20;;;27.00;22.80;;;;;;5078036;28;20519;-68
2023/03/10 00:15:54;;;;;;;23.77;4.18;;;26.80;22.80;;;;;;5072924;28;20546;-68
2023/03/10 00:18:21;;;;;;;22.35;3.08;;;26.80;23.10;;;;;;5074833;28;20083;-68
2023/03/10 00:20:51;;;;;;;20.88;3.45;;;26.70;22.90;;;;;;5074792;28;20069;-67
2023/03/10 00:23:17;;;;;;;21.30;3.25;;;26.60;22.90;;;;;;5074050;28;20667;-67
2023/03/10 00:25:44;;;;;;;17.25;3.25;;;26.60;24.30;;;;;;5074986;28;20161;-67
2023/03/10 00:28:10;;;;;;;14.88;2.88;;;26.60;23.60;;;;;;5078573;28;20083;-65
2023/03/10 00:30:37;;;;;;;12.50;2.80;;;26.50;24.30;;;;;;5071467;28;20093;-67
2023/03/10 00:33:03;;;;;;;17.15;3.20;;;26.40;23.10;;;;;;5073556;28;20099;-68
2023/03/10 00:35:30;;;;;;;12.68;2.67;;;26.30;23.80;;;;;;5071525;28;20085;-67
2023/03/10 00:37:56;;;;;;;19.83;2.58;;;26.10;23.10;;;;;;5074532;28;20078;-68
2023/03/10 00:40:23;;;;;;;10.73;3.17;;;26.10;23.60;;;;;;5074109;28;20099;-66
2023/03/10 00:42:49;;;;;;;18.38;3.17;;;26.00;23.40;;;;;;5076880;28;20087;-68
2023/03/10 00:45:15;;;;;;;16.55;3.28;;;26.00;23.80;;;;;;5072378;28;20075;-67
2023/03/10 00:47:42;;;;;;;16.90;3.28;;;26.00;24.60;;;;;;5068710;28;20067;-68
2023/03/10 00:50:09;;;;;;;23.65;4.05;;;25.90;24.20;;;;;;5076048;28;20096;-70
2023/03/10 00:52:35;;;;;;;22.52;3.63;;;25.90;24.00;;;;;;5074452;28;20066;-69
2023/03/10 00:55:02;;;;;;;17.58;3.30;;;25.80;25.20;;;;;;5073296;28;20512;-69
2023/03/10 00:57:28;;;;;;;14.82;3.15;;;25.70;25.10;;;;;;5073668;28;20063;-69
2023/03/10 00:59:55;;;;;;;15.95;3.65;;;25.60;25.10;;;;;;5073938;28;20067;-69
2023/03/10 01:02:21;;;;;;;15.85;3.17;;;25.50;25.50;;;;;;5072742;28;20099;-69
2023/03/10 01:04:48;;;;;;;16.35;3.63;;;25.40;25.30;;;;;;5071261;28;20163;-67
2023/03/10 01:07:14;;;;;;;14.23;3.80;;;25.40;25.80;;;;;;5072871;28;20141;-70
2023/03/10 01:09:41;;;;;;;16.02;4.32;;;25.20;25.70;;;;;;5073648;28;20515;-69
2023/03/10 01:12:07;;;;;;;20.25;3.83;;;25.20;25.90;;;;;;5073115;28;20071;-67
2023/03/10 01:14:34;;;;;;;18.52;4.28;;;25.10;25.60;;;;;;5072624;28;21336;-68
2023/03/10 01:17:02;;;;;;;16.40;3.67;;;25.00;26.20;;;;;;5075047;28;20063;-70
2023/03/10 01:19:29;;;;;;;19.13;3.35;;;24.90;27.00;;;;;;5070631;28;20083;-68
2023/03/10 01:21:56;;;;;;;23.52;3.95;;;24.90;26.90;;;;;;5073044;28;20072;-70
2023/03/10 01:24:22;;;;;;;15.88;3.80;;;24.90;27.30;;;;;;5071201;28;20079;-64
2023/03/10 01:26:49;;;;;;;19.30;3.28;;;24.80;27.30;;;;;;5074135;28;20072;-67
2023/03/10 01:29:15;;;;;;;18.88;4.32;;;24.70;27.50;;;;;;5076659;28;20122;-68
2023/03/10 01:31:41;;;;;;;16.40;4.07;;;24.60;27.70;;;;;;5071226;28;20160;-68
2023/03/10 01:34:08;;;;;;;15.05;3.90;;;24.60;28.10;;;;;;5073549;28;20075;-68
2023/03/10 01:36:35;;;;;;;27.17;4.05;;;24.50;28.30;;;;;;5072352;28;20072;-69
2023/03/10 01:39:01;;;;;;;26.88;3.47;;;24.40;28.70;;;;;;5073514;28;20086;-70
2023/03/10 01:41:27;;;;;;;12.57;2.88;;;24.30;28.50;;;;;;5073782;28;20074;-70
2023/03/10 01:43:56;;;;;;;14.20;3.28;;;24.30;28.90;;;;;;5074282;28;20071;-66
2023/03/10 01:46:37;;;;;;;19.85;3.00;;;24.20;29.50;;;;;;5072554;28;20175;-69
2023/03/10 01:49:26;;;;;;;17.45;3.70;;;24.00;29.60;;;;;;5073337;28;20466;-66
2023/03/10 01:52:09;;;;;;;27.77;4.10;;;23.90;30.00;;;;;;5071025;28;20068;-70
2023/03/10 01:54:58;;;;;;;20.60;3.45;;;23.70;29.90;;;;;;5072318;28;20072;-66
2023/03/10 01:57:32;;;;;;;27.88;4.20;;;23.50;30.40;;;;;;5073538;28;20586;-68
2023/03/10 01:59:59;;;;;;;25.50;4.38;;;23.40;30.60;;;;;;5072275;28;20078;-67
2023/03/10 02:02:26;;;;;;;25.15;4.45;;;23.20;30.80;;;;;;5072440;28;20072;-69
2023/03/10 02:04:54;;;;;;;42.80;7.85;;;23.10;31.20;;;;;;5073452;28;20517;-70
2023/03/10 02:07:24;;;;;;;22.00;6.95;;;22.90;31.60;;;;;;5072656;28;20267;-69
2023/03/10 02:09:52;;;;;;;25.13;6.20;;;22.80;32.00;;;;;;5073861;28;20136;-64
2023/03/10 02:12:19;;;;;;;29.27;5.85;;;22.60;32.50;;;;;;5076047;28;20445;-70
2023/03/10 02:14:47;;;;;;;28.83;5.65;;;22.40;32.50;;;;;;5073891;28;20545;-68
2023/03/10 02:17:17;;;;;;;36.42;6.30;;;22.30;32.90;;;;;;5073654;28;20084;-71
2023/03/10 02:19:55;;;;;;;29.08;5.18;;;22.30;32.10;;;;;;5069943;28;20807;-69
2023/03/10 02:22:22;;;;;;;30.33;4.15;;;22.20;31.80;;;;;;5073327;28;20180;-70
2023/03/10 02:24:57;;;;;;;33.22;4.95;;;22.10;31.80;;;;;;5071664;28;20075;-69
2023/03/10 02:27:35;;;;;;;29.70;5.30;;;22.10;32.30;;;;;;5075319;28;20149;-65
2023/03/10 02:30:19;;;;;;;46.80;7.22;;;22.00;32.50;;;;;;5076590;28;20213;-69
2023/03/10 02:32:52;;;;;;;48.97;10.55;;;22.00;32.10;;;;;;5072226;28;20554;-65
2023/03/10 02:35:18;;;;;;;35.47;9.88;;;21.90;32.40;;;;;;5070848;28;20092;-68
2023/03/10 02:37:45;;;;;;;38.38;11.40;;;21.80;32.20;;;;;;5072819;28;20071;-69
2023/03/10 02:40:33;;;;;;;43.78;12.70;;;21.80;32.20;;;;;;5072894;28;20076;-69
2023/03/10 02:43:12;;;;;;;58.80;15.93;;;21.60;32.30;;;;;;5071183;28;20102;-70
2023/03/10 02:45:41;;;;;;;41.20;12.98;;;21.60;32.60;;;;;;5072476;28;20079;-70
2023/03/10 02:48:11;;;;;;;60.20;13.40;;;21.50;32.50;;;;;;5073311;28;20082;-69
2023/03/10 02:50:40;;;;;;;58.00;12.68;;;21.40;32.80;;;;;;5073541;28;20084;-67
2023/03/10 02:53:17;;;;;;;54.67;11.43;;;21.30;33.30;;;;;;5075214;28;20064;-65
2023/03/10 02:55:43;;;;;;;58.35;11.30;;;21.20;33.30;;;;;;5072503;28;20677;-66
2023/03/10 02:58:10;;;;;;;74.65;12.32;;;21.20;33.80;;;;;;5073145;28;20529;-64
2023/03/10 03:00:39;;;;;;;116.40;15.23;;;21.10;34.50;;;;;;5072272;28;20084;-66
2023/03/10 03:03:06;;;;;;;93.72;14.10;;;21.00;34.80;;;;;;5071988;28;20174;-65
2023/03/10 03:05:33;;;;;;;80.60;13.20;;;20.90;34.90;;;;;;5071192;28;20163;-67
2023/03/10 03:07:59;;;;;;;102.80;14.68;;;20.80;34.90;;;;;;5072057;28;20103;-61
2023/03/10 03:10:26;;;;;;;86.30;35.65;;;20.80;35.50;;;;;;5072182;28;20098;-65
2023/03/10 03:12:55;;;;;;;275.42;211.90;;;20.70;35.60;;;;;;5071936;28;20086;-64
2023/03/10 03:15:22;;;;;;;182.25;116.07;;;20.70;36.20;;;;;;5072764;28;20091;-66
2023/03/10 03:17:49;;;;;;;62.90;18.92;;;20.70;36.60;;;;;;5072507;28;20064;-65
2023/03/10 03:20:16;;;;;;;61.85;18.80;;;20.60;36.30;;;;;;5072848;28;20487;-62
2023/03/10 03:22:44;;;;;;;58.00;13.48;;;20.60;36.90;;;;;;5071507;28;20068;-63
2023/03/10 03:25:13;;;;;;;38.80;10.85;;;20.50;37.30;;;;;;5073150;28;20076;-65
2023/03/10 03:27:40;;;;;;;55.95;11.57;;;20.40;37.50;;;;;;5071086;28;20064;-62
2023/03/10 03:30:10;;;;;;;61.10;11.68;;;20.40;37.40;;;;;;5076665;28;20545;-64
2023/03/10 03:32:37;;;;;;;60.78;14.10;;;20.40;37.70;;;;;;5074554;28;20104;-62
2023/03/10 03:35:04;;;;;;;62.83;17.05;;;20.30;37.70;;;;;;5074114;28;20527;-63
2023/03/10 03:37:30;;;;;;;70.95;17.80;;;20.30;37.50;;;;;;5075250;28;20520;-64
2023/03/10 03:39:57;;;;;;;58.35;16.80;;;20.30;37.70;;;;;;5055657;28;20075;-64
2023/03/10 03:42:23;;;;;;;75.53;18.27;;;20.20;37.90;;;;;;5073054;28;20075;-63
2023/03/10 03:44:50;;;;;;;68.30;16.05;;;20.20;38.30;;;;;;5071631;28;20541;-64
2023/03/10 03:47:16;;;;;;;61.25;15.70;;;20.00;37.80;;;;;;5074073;28;20647;-62
2023/03/10 03:49:42;;;;;;;59.00;14.90;;;20.00;38.30;;;;;;5073360;28;20087;-64
2023/03/10 03:52:09;;;;;;;93.03;15.60;;;20.00;38.10;;;;;;5074841;28;20075;-62
2023/03/10 03:54:35;;;;;;;97.55;15.73;;;20.00;38.40;;;;;;5072761;28;20155;-63
2023/03/10 03:57:02;;;;;;;75.93;13.23;;;20.00;38.70;;;;;;5072757;28;20079;-63
2023/03/10 03:59:29;;;;;;;94.10;14.73;;;20.00;38.60;;;;;;5074185;28;20064;-64
2023/03/10 04:01:55;;;;;;;104.95;15.10;;;19.90;38.90;;;;;;5071191;28;20091;-64
2023/03/10 04:04:21;;;;;;;93.03;15.25;;;19.90;39.10;;;;;;5073962;28;20080;-63
2023/03/10 04:06:48;;;;;;;120.25;17.40;;;19.90;39.00;;;;;;5072964;28;20133;-62
2023/03/10 04:09:16;;;;;;;118.60;16.83;;;19.90;39.50;;;;;;5073391;28;20512;-63
2023/03/10 04:11:43;;;;;;;107.93;17.05;;;19.80;39.30;;;;;;5072232;28;20544;-65
2023/03/10 04:14:09;;;;;;;107.40;18.67;;;19.80;39.30;;;;;;5074385;28;20092;-65
2023/03/10 04:16:36;;;;;;;118.15;17.55;;;19.80;38.50;;;;;;5071747;28;20067;-64
2023/03/10 04:19:06;;;;;;;97.35;17.17;;;19.70;38.30;;;;;;5069680;28;20093;-64
2023/03/10 04:21:34;;;;;;;120.13;18.15;;;19.70;38.30;;;;;;5071756;28;20068;-67
2023/03/10 04:24:00;;;;;;;103.97;19.20;;;19.60;38.00;;;;;;5069863;28;20068;-62
2023/03/10 04:26:27;;;;;;;102.55;19.35;;;19.60;39.00;;;;;;5071715;28;20072;-62
2023/03/10 04:28:53;;;;;;;106.22;20.83;;;19.60;39.40;;;;;;5069685;28;20080;-62
2023/03/10 04:31:21;;;;;;;95.40;19.25;;;19.50;38.60;;;;;;5076263;28;20084;-64
2023/03/10 04:33:47;;;;;;;82.25;19.92;;;19.60;38.20;;;;;;5072025;28;20480;-62
2023/03/10 04:36:14;;;;;;;87.75;19.50;;;19.50;38.50;;;;;;5071413;28;20163;-63
2023/03/10 04:38:41;;;;;;;83.40;19.75;;;19.50;37.80;;;;;;5072345;28;20098;-64
2023/03/10 04:41:08;;;;;;;83.60;21.08;;;19.40;37.90;;;;;;5073255;28;20072;-63
2023/03/10 04:43:34;;;;;;;67.43;22.17;;;19.40;37.50;;;;;;5072437;28;20447;-64
2023/03/10 04:46:01;;;;;;;99.32;24.73;;;19.40;38.00;;;;;;5073065;28;20074;-62
2023/03/10 04:48:28;;;;;;;131.55;28.45;;;19.40;38.40;;;;;;5073386;28;21484;-64
2023/03/10 04:51:02;;;;;;;119.70;29.50;;;19.30;38.10;;;;;;5072393;28;20155;-61
2023/03/10 04:53:31;;;;;;;111.32;29.00;;;19.30;37.90;;;;;;5069752;28;20072;-62
2023/03/10 04:55:58;;;;;;;93.90;27.30;;;19.30;37.40;;;;;;5068180;28;20084;-62
2023/03/10 04:58:25;;;;;;;118.18;28.10;;;19.40;37.70;;;;;;5071311;28;20072;-63
2023/03/10 05:00:53;;;;;;;116.53;27.70;;;19.30;38.10;;;;;;5069226;28;20106;-63
2023/03/10 05:03:19;;;;;;;145.18;24.98;;;19.40;39.30;;;;;;5070315;28;20186;-63
2023/03/10 05:05:46;;;;;;;93.38;22.75;;;19.40;38.30;;;;;;5068562;28;20529;-63
2023/03/10 05:08:12;;;;;;;123.20;25.52;;;19.60;38.30;;;;;;5072047;28;20116;-63
2023/03/10 05:10:46;;;;;;;119.65;27.80;;;19.70;39.00;;;;;;5073995;28;20091;-62
2023/03/10 05:13:13;;;;;;;96.90;19.50;;;19.70;38.30;;;;;;5068588;28;20094;-62
2023/03/10 05:15:40;;;;;;;105.25;18.17;;;19.70;38.10;;;;;;5071166;28;20098;-62
2023/03/10 05:18:09;;;;;;;101.18;19.75;;;19.80;37.80;;;;;;5069768;28;20194;-66
2023/03/10 05:20:36;;;;;;;81.05;17.67;;;19.90;38.30;;;;;;5069998;28;20072;-63
2023/03/10 05:23:02;;;;;;;96.72;20.00;;;20.00;38.60;;;;;;5070557;28;20083;-64
2023/03/10 05:25:29;;;;;;;98.60;20.67;;;20.00;38.80;;;;;;5071556;28;20076;-64
2023/03/10 05:27:55;;;;;;;85.25;19.58;;;19.90;38.80;;;;;;5072132;28;20060;-61
2023/03/10 05:30:22;;;;;;;81.20;17.25;;;19.80;38.70;;;;;;5071206;28;20100;-62
2023/03/10 05:32:48;;;;;;;97.22;17.77;;;19.70;38.90;;;;;;5073774;28;20560;-64
2023/03/10 05:35:15;;;;;;;93.20;17.77;;;19.70;39.10;;;;;;5071322;28;20133;-63
2023/03/10 05:37:43;;;;;;;104.65;18.55;;;19.70;39.10;;;;;;5070697;28;20099;-65
2023/03/10 05:40:13;;;;;;;74.90;19.15;;;19.80;39.50;;;;;;5069614;28;20080;-62
2023/03/10 05:42:39;;;;;;;88.28;20.08;;;19.80;40.20;;;;;;5069850;28;20072;-63
2023/03/10 05:45:07;;;;;;;147.40;28.67;;;19.80;40.00;;;;;;5074252;28;20167;-64
2023/03/10 05:47:34;;;;;;;104.85;20.35;;;19.70;40.00;;;;;;5074676;28;20122;-64
2023/03/10 05:50:01;;;;;;;83.88;19.25;;;19.80;40.90;;;;;;5072812;28;20179;-64
2023/03/10 05:52:27;;;;;;;98.47;19.85;;;19.70;39.60;;;;;;5075347;28;20068;-63
2023/03/10 05:54:54;;;;;;;88.20;18.48;;;19.70;40.00;;;;;;5074288;28;20072;-64
2023/03/10 05:57:20;;;;;;;91.88;16.05;;;19.70;41.20;;;;;;5075116;28;20107;-65
2023/03/10 05:59:46;;;;;;;68.50;16.25;;;19.60;41.10;;;;;;5074711;28;20590;-64
2023/03/10 06:02:13;;;;;;;74.32;17.17;;;19.50;41.20;;;;;;5055002;28;20079;-64
2023/03/10 06:04:39;;;;;;;72.30;16.58;;;19.50;42.00;;;;;;5073359;28;20552;-64
2023/03/10 06:07:06;;;;;;;83.93;16.27;;;19.50;41.80;;;;;;5075607;28;20111;-64
2023/03/10 06:09:32;;;;;;;71.22;15.73;;;19.40;42.30;;;;;;5075922;28;20140;-65
2023/03/10 06:11:59;;;;;;;74.80;15.80;;;19.20;41.10;;;;;;5075051;28;20113;-63
2023/03/10 06:14:26;;;;;;;70.38;15.25;;;19.10;40.50;;;;;;5076033;28;20072;-63
2023/03/10 06:16:57;;;;;;;80.47;16.13;;;19.10;40.60;;;;;;5076002;28;20069;-62
2023/03/10 06:19:24;;;;;;;85.93;25.27;;;19.10;41.90;;;;;;5075083;28;20083;-62
2023/03/10 06:21:51;;;;;;;90.20;23.40;;;19.10;41.60;;;;;;5074071;28;20129;-63
2023/03/10 06:24:18;;;;;;;66.38;14.55;;;19.00;40.60;;;;;;5074892;28;20076;-64
2023/03/10 06:26:44;;;;;;;76.03;16.38;;;18.90;40.80;;;;;;5075669;28;20436;-64
2023/03/10 06:29:10;;;;;;;72.85;17.17;;;18.80;40.60;;;;;;5075710;28;20079;-61
2023/03/10 06:31:37;;;;;;;53.53;15.63;;;18.90;40.60;;;;;;5075538;28;20162;-63
2023/03/10 06:34:03;;;;;;;59.10;16.15;;;18.80;41.00;;;;;;5052043;28;20071;-62
2023/03/10 06:36:33;;;;;;;67.60;16.50;;;18.80;41.80;;;;;;5072492;28;20551;-64
2023/03/10 06:38:59;;;;;;;64.68;18.05;;;18.70;41.90;;;;;;5074366;28;20087;-62
2023/03/10 06:41:26;;;;;;;70.55;18.30;;;18.60;41.80;;;;;;5074118;28;20128;-62
2023/03/10 06:43:53;;;;;;;78.30;20.45;;;18.60;41.60;;;;;;5074867;28;20441;-63
2023/03/10 06:46:19;;;;;;;61.45;19.08;;;18.50;42.70;;;;;;5075206;28;20565;-62
2023/03/10 06:48:46;;;;;;;76.03;19.33;;;18.60;42.20;;;;;;5074890;28;20072;-63
2023/03/10 06:51:17;;;;;;;74.38;20.60;;;18.60;41.90;;;;;;5071872;28;20461;-63
2023/03/10 06:53:43;;;;;;;70.85;18.83;;;18.60;42.40;;;;;;5073039;28;20521;-64
2023/03/10 06:56:16;;;;;;;79.82;20.55;;;18.50;43.60;;;;;;5075202;28;20159;-62
2023/03/10 06:58:43;;;;;;;73.65;25.17;;;18.50;43.60;;;;;;5074142;28;20219;-64
2023/03/10 07:01:21;;;;;;;66.05;20.92;;;18.40;43.60;;;;;;5056300;28;20076;-64
2023/03/10 07:03:47;;;;;;;58.42;19.40;;;18.20;43.10;;;;;;5073823;28;20076;-63
2023/03/10 07:06:14;;;;;;;89.15;22.98;;;18.20;43.40;;;;;;5071576;28;21588;-65
2023/03/10 07:08:40;;;;;;;105.95;25.02;;;18.20;43.30;;;;;;5072451;28;20153;-63
2023/03/10 07:11:06;;;;;;;94.53;24.83;;;18.20;43.00;;;;;;5069910;28;20085;-63
2023/03/10 07:13:33;;;;;;;97.72;24.30;;;18.20;43.30;;;;;;5071411;28;20469;-63
2023/03/10 07:15:59;;;;;;;85.82;23.08;;;18.10;43.50;;;;;;5072808;28;20090;-61
2023/03/10 07:18:28;;;;;;;59.58;19.05;;;18.10;43.40;;;;;;5072882;28;20110;-61
2023/03/10 07:20:55;;;;;;;55.17;16.17;;;18.10;43.90;;;;;;5072897;28;20123;-62
2023/03/10 07:23:22;;;;;;;50.03;13.57;;;18.20;43.20;;;;;;5054881;28;20068;-63
2023/03/10 07:25:55;;;;;;;53.20;15.82;;;18.20;43.80;;;;;;5071111;28;20083;-63
2023/03/10 07:28:24;;;;;;;52.75;17.58;;;18.20;43.40;;;;;;5072851;28;20485;-63
2023/03/10 07:30:51;;;;;;;56.15;16.40;;;18.20;43.50;;;;;;5072053;28;20132;-63
2023/03/10 07:33:17;;;;;;;59.63;17.38;;;18.20;43.60;;;;;;5073771;28;20095;-63
2023/03/10 07:35:44;;;;;;;69.28;18.30;;;18.20;44.20;;;;;;5071767;28;20777;-62
2023/03/10 07:38:11;;;;;;;67.28;18.65;;;18.10;44.10;;;;;;5070898;28;20433;-64
2023/03/10 07:40:39;;;;;;;78.03;20.25;;;18.10;43.90;;;;;;5071065;28;20093;-62
2023/03/10 07:43:05;;;;;;;58.85;16.83;;;18.10;44.60;;;;;;5053980;28;20068;-63
2023/03/10 07:45:33;;;;;;;61.00;15.45;;;18.00;44.10;;;;;;5071838;28;20096;-64
2023/03/10 07:48:00;;;;;;;55.30;17.20;;;18.00;45.10;;;;;;5069162;28;20484;-65
2023/03/10 07:50:26;;;;;;;71.38;15.30;;;18.00;45.20;;;;;;5070936;28;20091;-64
2023/03/10 07:52:54;;;;;;;45.53;15.25;;;17.90;45.40;;;;;;5071338;28;20477;-64
2023/03/10 07:55:20;;;;;;;59.35;15.55;;;17.90;44.80;;;;;;5070717;28;20068;-63
2023/03/10 07:57:47;;;;;;;46.80;15.32;;;17.80;44.60;;;;;;5071994;28;20096;-61
2023/03/10 08:00:14;;;;;;;50.25;14.80;;;17.80;45.00;;;;;;5071343;28;20081;-64
2023/03/10 08:02:40;;;;;;;58.30;16.33;;;17.80;46.50;;;;;;5071084;28;20092;-63
2023/03/10 08:05:08;;;;;;;55.88;16.90;;;17.60;46.50;;;;;;5070740;28;20199;-63
2023/03/10 08:07:36;;;;;;;54.22;16.55;;;17.50;46.90;;;;;;5069854;28;20108;-62
2023/03/10 08:10:03;;;;;;;54.65;15.25;;;17.50;47.20;;;;;;5071212;28;20084;-63
2023/03/10 08:12:29;;;;;;;64.53;15.48;;;17.50;47.40;;;;;;5069482;28;20534;-65
2023/03/10 08:14:56;;;;;;;60.08;14.80;;;17.40;48.90;;;;;;5069873;28;20122;-62
2023/03/10 08:17:29;;;;;;;65.50;16.83;;;17.30;47.80;;;;;;5069013;28;20081;-61
2023/03/10 08:19:57;;;;;;;56.47;15.55;;;17.30;48.30;;;;;;5070472;28;20080;-61
2023/03/10 08:22:23;;;;;;;48.38;15.55;;;17.30;48.40;;;;;;5070868;28;20440;-62
2023/03/10 08:24:50;;;;;;;47.72;14.75;;;17.20;48.50;;;;;;5069370;28;20109;-61
2023/03/10 08:27:16;;;;;;;55.20;14.85;;;17.20;48.60;;;;;;5070530;28;20071;-63
2023/03/10 08:29:43;;;;;;;64.70;16.70;;;17.10;48.50;;;;;;5069430;28;20091;-63
2023/03/10 08:32:12;;;;;;;52.85;15.85;;;17.10;47.70;;;;;;5070171;28;20064;-63
2023/03/10 08:34:40;;;;;;;51.92;15.68;;;17.10;47.50;;;;;;5073761;28;20463;-63
2023/03/10 08:37:06;;;;;;;55.20;15.38;;;17.00;48.50;;;;;;5055094;28;20096;-64
2023/03/10 08:39:33;;;;;;;49.60;13.95;;;17.00;49.20;;;;;;5070588;28;20068;-63
2023/03/10 08:41:59;;;;;;;49.67;15.43;;;16.80;49.00;;;;;;5070154;28;20561;-63
2023/03/10 08:44:26;;;;;;;56.95;16.30;;;16.80;48.50;;;;;;5071484;28;20076;-63
2023/03/10 08:46:53;;;;;;;60.38;15.82;;;16.70;48.30;;;;;;5070417;28;20168;-63
2023/03/10 08:49:21;;;;;;;52.28;14.73;;;16.80;48.30;;;;;;5051158;28;20157;-63
2023/03/10 08:51:48;;;;;;;46.03;14.45;;;16.70;49.30;;;;;;5069166;28;20072;-61
2023/03/10 08:54:17;;;;;;;59.08;16.13;;;16.50;49.00;;;;;;5071879;28;20108;-61
2023/03/10 08:56:47;;;;;;;54.55;16.45;;;16.60;49.10;;;;;;5071307;28;21429;-63
2023/03/10 08:59:14;;;;;;;54.53;16.50;;;16.50;49.60;;;;;;5052435;28;20473;-61
2023/03/10 09:01:40;;;;;;;58.78;17.92;;;16.50;50.50;;;;;;5069822;28;20068;-62
2023/03/10 09:04:09;;;;;;;63.97;17.05;;;16.50;49.00;;;;;;5070202;28;20122;-64
2023/03/10 09:06:36;;;;;;;64.15;19.45;;;16.50;49.40;;;;;;5070020;28;20071;-61
2023/03/10 09:09:04;;;;;;;66.30;19.52;;;16.60;49.50;;;;;;5070612;28;20141;-62
2023/03/10 09:11:33;;;;;;;68.70;18.25;;;16.50;48.70;;;;;;5071244;28;20129;-63
2023/03/10 09:14:01;;;;;;;70.22;20.60;;;16.50;48.30;;;;;;5070608;28;20077;-61
2023/03/10 09:16:30;;;;;;;63.97;19.45;;;16.50;49.20;;;;;;5070406;28;20067;-62
2023/03/10 09:18:58;;;;;;;67.00;18.45;;;16.50;49.10;;;;;;5069113;28;20069;-63
2023/03/10 09:21:26;;;;;;;74.68;20.42;;;16.40;48.90;;;;;;5071429;28;20085;-62
2023/03/10 09:23:56;;;;;;;73.80;20.60;;;16.50;48.60;;;;;;5071033;28;20122;-62
2023/03/10 09:26:22;;;;;;;65.80;20.15;;;16.40;50.00;;;;;;5069839;28;20118;-62
2023/03/10 09:28:50;;;;;;;72.95;21.40;;;16.40;50.00;;;;;;5067665;28;20069;-61
2023/03/10 09:31:27;;;;;;;70.57;19.58;;;16.40;50.60;;;;;;5072016;28;20200;-62
2023/03/10 09:33:53;;;;;;;76.82;20.00;;;16.30;49.50;;;;;;5052912;28;20586;-62
2023/03/10 09:36:20;;;;;;;73.47;20.48;;;16.20;49.90;;;;;;5068745;28;20069;-63
2023/03/10 09:38:46;;;;;;;87.78;22.80;;;16.10;50.10;;;;;;5070885;28;20124;-64
2023/03/10 09:41:19;;;;;;;82.95;20.40;;;16.10;49.60;;;;;;5070091;28;20077;-63
2023/03/10 09:43:55;;;;;;;78.47;21.65;;;16.10;50.30;;;;;;5071206;28;20145;-60
2023/03/10 09:46:50;;;;;;;69.37;22.77;;;16.10;49.60;;;;;;5070900;28;20068;-64
2023/03/10 09:49:38;;;;;;;78.78;23.13;;;15.90;48.70;;;;;;5067154;28;20301;-63
2023/03/10 09:52:15;;;;;;;83.38;22.98;;;16.00;48.90;;;;;;5070561;28;20078;-63
2023/03/10 09:54:41;;;;;;;;;;;16.10;49.30;;;;;;5069969;28;20444;-65
2023/03/10 09:57:19;;;;;;;81.82;24.60;;;16.10;49.40;;;;;;5071597;28;19957;-61
2023/03/10 09:59:48;;;;;;;86.15;26.17;;;16.00;49.70;;;;;;5068618;28;20084;-63
2023/03/10 10:02:38;;;;;;;87.95;24.10;;;16.00;49.60;;;;;;5070739;28;20149;-63
2023/03/10 10:05:24;;;;;;;94.00;24.90;;;15.90;49.90;;;;;;5070475;28;20153;-62
2023/03/10 10:07:56;;;;;;;77.60;23.65;;;15.90;50.20;;;;;;5071261;28;20121;-64
2023/03/10 10:10:35;;;;;;;88.15;24.40;;;15.80;50.70;;;;;;5070544;28;20081;-63
2023/03/10 10:13:13;;;;;;;82.32;25.67;;;15.60;50.90;;;;;;5070984;28;20068;-63
2023/03/10 10:16:05;;;;;;;85.40;24.20;;;15.50;50.90;;;;;;5070788;28;20456;-63
2023/03/10 10:18:42;;;;;;;85.20;26.00;;;15.60;50.60;;;;;;5031200;28;20085;-63
2023/03/10 10:21:21;;;;;;;;;;;15.70;50.50;;;;;;5071805;28;20598;-62
2023/03/10 10:23:57;;;;;;;86.72;25.35;;;15.70;51.20;;;;;;5071839;28;20452;-63
2023/03/10 10:26:25;;;;;;;67.85;23.85;;;15.60;51.80;;;;;;5070517;28;20085;-63
2023/03/10 10:29:10;;;;;;;73.72;23.20;;;15.70;51.70;;;;;;5071616;28;20438;-65
2023/03/10 10:31:37;;;;;;;75.22;21.98;;;15.70;52.20;;;;;;5071667;28;20133;-64
2023/03/10 10:34:04;;;;;;;68.75;23.10;;;15.60;51.20;;;;;;5074146;28;20083;-64
2023/03/10 10:36:38;;;;;;;73.10;23.67;;;15.50;51.80;;;;;;5073950;28;20061;-64
2023/03/10 10:39:23;;;;;;;76.72;23.70;;;15.50;51.30;;;;;;5073427;28;20067;-64
2023/03/10 10:41:50;;;;;;;74.55;21.50;;;15.40;51.40;;;;;;5074207;28;20161;-63
2023/03/10 10:44:17;;;;;;;69.25;21.17;;;15.50;51.30;;;;;;5073110;28;20081;-63
2023/03/10 10:46:56;;;;;;;66.68;22.65;;;15.60;52.20;;;;;;5074088;28;20479;-60
2023/03/10 10:49:25;;;;;;;70.85;21.08;;;15.50;51.80;;;;;;5072517;28;20119;-62
2023/03/10 10:52:03;;;;;;;61.67;21.52;;;15.50;51.50;;;;;;5074005;28;20069;-62
2023/03/10 10:54:42;;;;;;;57.53;19.88;;;15.40;51.80;;;;;;5072259;28;20061;-61
2023/03/10 10:57:32;;;;;;;58.17;22.10;;;15.40;51.50;;;;;;5072906;28;20104;-64
2023/03/10 11:00:18;;;;;;;71.05;26.85;;;15.50;52.20;;;;;;5073025;28;20073;-63
2023/03/10 11:02:45;;;;;;;89.50;27.80;;;15.50;51.60;;;;;;5072940;28;20073;-64
2023/03/10 11:05:11;;;;;;;64.13;24.40;;;15.50;51.60;;;;;;5072694;28;20089;-61
2023/03/10 11:07:37;;;;;;;;;;;15.60;51.70;;;;;;5073302;28;20183;-63
2023/03/10 11:10:31;;;;;;;89.35;26.40;;;15.50;52.70;;;;;;5069510;28;19976;-63
2023/03/10 11:13:18;;;;;;;70.88;25.63;;;15.50;52.10;;;;;;5068275;28;20160;-64
2023/03/10 11:16:14;;;;;;;65.95;26.48;;;15.60;52.30;;;;;;5069818;28;20080;-65
2023/03/10 11:18:57;;;;;;;80.20;23.65;;;15.50;52.40;;;;;;5069269;28;20077;-62
2023/03/10 11:21:29;;;;;;;79.13;23.58;;;15.40;52.20;;;;;;5069659;28;20123;-64
2023/03/10 11:24:02;;;;;;;78.25;24.00;;;15.40;52.20;;;;;;5069599;28;20167;-63
2023/03/10 11:26:49;;;;;;;85.05;23.98;;;15.40;52.30;;;;;;5069534;28;20081;-62
2023/03/10 11:29:46;;;;;;;75.63;22.98;;;15.40;52.70;;;;;;5071633;28;20093;-62
2023/03/10 11:32:25;;;;;;;69.07;23.48;;;15.40;52.50;;;;;;5073179;28;20081;-64
2023/03/10 11:34:57;;;;;;;74.72;23.13;;;15.40;52.50;;;;;;5074185;28;20077;-64
2023/03/10 11:37:43;;;;;;;72.75;24.08;;;15.40;52.40;;;;;;5073206;28;20122;-62
2023/03/10 11:40:41;;;;;;;73.45;26.33;;;15.30;52.30;;;;;;5071365;28;20077;-62
2023/03/10 11:43:29;;;;;;;92.15;30.30;;;15.30;52.20;;;;;;5071355;28;20096;-63
2023/03/10 11:45:59;;;;;;;94.93;31.25;;;15.30;52.10;;;;;;5072086;28;20441;-62
2023/03/10 11:48:56;;;;;;;108.63;33.92;;;15.20;52.20;;;;;;5072152;28;20508;-62
2023/03/10 11:51:41;;;;;;;122.97;38.00;;;15.20;52.50;;;;;;5072155;28;20093;-62
2023/03/10 11:54:29;;;;;;;124.63;38.42;;;15.30;52.40;;;;;;5072622;28;20126;-62
2023/03/10 11:56:56;;;;;;;129.07;39.47;;;15.30;52.00;;;;;;5073884;28;20104;-63
2023/03/10 11:59:26;;;;;;;114.85;40.97;;;15.20;52.20;;;;;;5074932;28;20096;-62
2023/03/10 12:02:23;;;;;;;131.48;41.95;;;15.30;52.60;;;;;;5072315;28;20463;-62
2023/03/10 12:05:20;;;;;;;129.05;39.00;;;15.20;52.30;;;;;;5068757;28;20558;-64
2023/03/10 12:07:50;;;;;;;132.73;39.65;;;15.20;51.70;;;;;;5074267;28;20220;-62
2023/03/10 12:10:20;;;;;;;147.75;40.45;;;15.20;51.60;;;;;;5056383;28;20095;-63
2023/03/10 12:12:49;;;;;;;144.95;44.28;;;15.30;51.50;;;;;;5072246;28;20088;-62
2023/03/10 12:15:34;;;;;;;122.22;40.75;;;15.20;51.70;;;;;;5074731;28;20178;-63
2023/03/10 12:18:04;;;;;;;113.93;41.17;;;15.20;51.60;;;;;;5073594;28;20134;-64
2023/03/10 12:20:33;;;;;;;116.68;38.95;;;15.20;51.60;;;;;;5074078;28;20064;-61
2023/03/10 12:23:23;;;;;;;116.50;38.85;;;15.20;51.30;;;;;;5074454;28;20179;-63
2023/03/10 12:25:50;;;;;;;114.05;39.05;;;15.30;51.30;;;;;;5074161;28;20072;-63
2023/03/10 12:28:16;;;;;;;99.13;35.50;;;15.30;50.90;;;;;;5075017;28;20088;-63
2023/03/10 12:30:58;;;;;;;94.40;37.40;;;15.30;51.00;;;;;;5073218;28;20088;-64
2023/03/10 12:33:36;;;;;;;88.28;34.40;;;15.30;51.10;;;;;;5071999;28;20065;-63
2023/03/10 12:36:14;;;;;;;93.90;33.65;;;15.30;51.10;;;;;;5070744;28;20096;-63
2023/03/10 12:38:45;;;;;;;89.82;31.77;;;15.30;51.00;;;;;;5071292;28;20122;-61
2023/03/10 12:41:13;;;;;;;83.47;29.38;;;15.30;51.00;;;;;;5071461;28;20097;-62
2023/03/10 12:43:59;;;;;;;81.30;27.80;;;15.30;51.00;;;;;;5071375;28;20081;-63